createdAt,value
2018-11-03T00:00:58.798Z,11.93
2018-11-03T00:03:28.004Z,12.17
2018-11-03T00:05:57.039Z,10.80
2018-11-03T00:08:26.406Z,10.07
2018-11-03T00:10:54.959Z,11.70
2018-11-03T00:13:23.903Z,12.73
2018-11-03T00:15:52.542Z,11.10
2018-11-03T00:18:21.339Z,5.70
2018-11-03T00:20:49.933Z,5.70
2018-11-03T00:23:18.476Z,5.87
2018-11-03T00:25:47.033Z,6.23
2018-11-03T00:28:15.485Z,5.47
2018-11-03T00:30:44.754Z,11.27
2018-11-03T00:33:13.202Z,12.57
2018-11-03T00:35:41.677Z,9.00
2018-11-03T00:38:10.590Z,12.00
2018-11-03T00:40:39.153Z,11.73
2018-11-03T00:43:07.663Z,7.37
2018-11-03T00:45:36.296Z,7.97
2018-11-03T00:48:05.018Z,7.20
2018-11-03T00:50:34.281Z,11.90
2018-11-03T00:53:02.991Z,9.13
2018-11-03T00:55:31.922Z,6.93
2018-11-03T00:58:01.164Z,7.13
2018-11-03T01:00:29.678Z,7.70
2018-11-03T01:02:58.574Z,6.83
2018-11-03T01:05:27.917Z,5.63
2018-11-03T01:07:56.501Z,5.37
2018-11-03T01:10:25.109Z,6.70
2018-11-03T01:12:53.578Z,7.57
2018-11-03T01:15:22.724Z,7.50
2018-11-03T01:17:51.216Z,10.07
2018-11-03T01:20:20.093Z,13.20
2018-11-03T01:22:49.379Z,10.27
2018-11-03T01:25:18.700Z,11.10
2018-11-03T01:27:47.886Z,12.63
2018-11-03T01:30:17.107Z,9.80
2018-11-03T01:32:46.252Z,13.80
2018-11-03T01:35:14.904Z,10.77
2018-11-03T01:37:43.700Z,9.83
2018-11-03T01:40:13.927Z,9.73
2018-11-03T01:42:43.700Z,16.20
2018-11-03T01:45:12.339Z,12.57
2018-11-03T01:47:40.782Z,10.03
2018-11-03T01:50:11.344Z,12.23
2018-11-03T01:52:41.098Z,12.03
2018-11-03T01:55:10.428Z,12.63
2018-11-03T01:57:39.237Z,11.50
2018-11-03T02:00:08.654Z,12.63
2018-11-03T02:02:37.352Z,12.03
2018-11-03T02:05:06.484Z,17.33
2018-11-03T02:07:35.677Z,13.47
2018-11-03T02:10:04.810Z,18.20
2018-11-03T02:12:33.624Z,12.77
2018-11-03T02:15:02.086Z,13.17
2018-11-03T02:17:30.561Z,15.63
2018-11-03T02:19:59.300Z,11.03
2018-11-03T02:22:27.726Z,16.83
2018-11-03T02:24:56.274Z,14.17
2018-11-03T02:27:24.710Z,13.70
2018-11-03T02:29:53.397Z,9.67
2018-11-03T02:32:21.985Z,10.83
2018-11-03T02:34:50.815Z,10.70
2018-11-03T02:37:20.215Z,13.10
2018-11-03T02:39:48.647Z,10.03
2018-11-03T02:42:17.172Z,13.50
2018-11-03T02:44:45.909Z,10.73
2018-11-03T02:47:14.361Z,13.33
2018-11-03T02:49:43.429Z,16.63
2018-11-03T02:52:11.920Z,10.90
2018-11-03T02:54:41.091Z,12.87
2018-11-03T02:57:09.673Z,15.67
2018-11-03T02:59:38.293Z,15.87
2018-11-03T03:02:06.764Z,15.60
2018-11-03T03:04:35.834Z,17.43
2018-11-03T03:07:04.360Z,16.43
2018-11-03T03:09:33.069Z,15.37
2018-11-03T03:12:02.279Z,15.90
2018-11-03T03:14:31.841Z,10.40
2018-11-03T03:17:00.291Z,11.57
2018-11-03T03:19:28.850Z,14.53
2018-11-03T03:21:57.341Z,13.43
2018-11-03T03:24:26.657Z,10.33
2018-11-03T03:26:55.092Z,11.40
2018-11-03T03:29:23.680Z,15.70
2018-11-03T03:31:52.756Z,15.97
2018-11-03T03:34:21.157Z,13.63
2018-11-03T03:36:49.691Z,13.67
2018-11-03T03:39:18.420Z,12.50
2018-11-03T03:41:46.818Z,17.27
2018-11-03T03:44:15.405Z,11.07
2018-11-03T03:46:44.576Z,15.73
2018-11-03T03:49:13.213Z,9.50
2018-11-03T03:51:42.490Z,10.00
2018-11-03T03:54:10.972Z,13.40
2018-11-03T03:56:42.612Z,11.03
2018-11-03T03:59:11.939Z,9.03
2018-11-03T04:01:40.348Z,18.27
2018-11-03T04:04:08.804Z,15.13
2018-11-03T04:06:37.415Z,15.20
2018-11-03T04:09:07.570Z,13.23
2018-11-03T04:11:35.969Z,14.17
2018-11-03T04:14:05.124Z,17.63
2018-11-03T04:16:33.752Z,17.93
2018-11-03T04:19:02.826Z,12.10
2018-11-03T04:21:31.819Z,11.27
2018-11-03T04:24:01.195Z,10.80
2018-11-03T04:26:30.498Z,11.20
2018-11-03T04:28:59.430Z,19.27
2018-11-03T04:31:28.776Z,16.43
2018-11-03T04:33:57.731Z,19.33
2018-11-03T04:36:26.304Z,14.77
2018-11-03T04:38:55.429Z,12.40
2018-11-03T04:41:23.924Z,18.80
2018-11-03T04:43:53.087Z,10.00
2018-11-03T04:46:21.733Z,16.27
2018-11-03T04:48:54.492Z,13.67
2018-11-03T04:51:23.048Z,13.77
2018-11-03T04:53:51.548Z,15.63
2018-11-03T04:56:19.995Z,14.47
2018-11-03T04:58:49.186Z,17.13
2018-11-03T05:01:18.454Z,13.30
2018-11-03T05:03:47.738Z,10.90
2018-11-03T05:06:16.520Z,12.47
2018-11-03T05:08:45.074Z,12.33
2018-11-03T05:11:13.549Z,17.63
2018-11-03T05:13:42.545Z,13.03
2018-11-03T05:16:11.350Z,10.43
2018-11-03T05:18:39.789Z,18.77
2018-11-03T05:21:08.337Z,11.77
2018-11-03T05:23:36.777Z,12.97
2018-11-03T05:26:05.830Z,11.30
2018-11-03T05:28:34.225Z,14.30
2018-11-03T05:31:02.815Z,9.83
2018-11-03T05:33:31.567Z,12.87
2018-11-03T05:36:00.289Z,14.80
2018-11-03T05:38:29.340Z,13.03
2018-11-03T05:40:57.881Z,15.40
2018-11-03T05:43:26.454Z,11.93
2018-11-03T05:45:54.951Z,14.33
2018-11-03T05:48:23.394Z,12.70
2018-11-03T05:50:52.033Z,12.57
2018-11-03T05:53:20.882Z,14.47
2018-11-03T05:55:49.497Z,9.47
2018-11-03T05:58:18.542Z,9.33
2018-11-03T06:00:47.063Z,11.03
2018-11-03T06:03:15.590Z,10.47
2018-11-03T06:05:44.151Z,17.80
2018-11-03T06:08:13.485Z,14.37
2018-11-03T06:10:41.894Z,19.20
2018-11-03T06:13:10.374Z,18.90
2018-11-03T06:15:39.083Z,10.67
2018-11-03T06:18:07.591Z,9.30
2018-11-03T06:20:36.207Z,10.13
2018-11-03T06:23:04.825Z,10.73
2018-11-03T06:25:33.308Z,8.57
2018-11-03T06:28:02.304Z,11.33
2018-11-03T06:30:30.900Z,17.30
2018-11-03T06:32:59.582Z,10.13
2018-11-03T06:35:28.496Z,10.53
2018-11-03T06:37:56.993Z,14.30
2018-11-03T06:40:25.468Z,10.83
2018-11-03T06:42:54.046Z,18.20
2018-11-03T06:45:23.334Z,18.33
2018-11-03T06:47:52.546Z,14.27
2018-11-03T06:50:21.036Z,16.03
2018-11-03T06:52:50.119Z,13.90
2018-11-03T06:55:18.507Z,10.10
2018-11-03T06:57:46.993Z,15.30
2018-11-03T07:00:15.410Z,11.63
2018-11-03T07:02:43.891Z,17.63
2018-11-03T07:05:12.454Z,10.63
2018-11-03T07:07:40.789Z,11.47
2018-11-03T07:10:10.370Z,13.47
2018-11-03T07:12:39.163Z,16.90
2018-11-03T07:15:07.721Z,12.67
2018-11-03T07:17:36.665Z,9.57
2018-11-03T07:20:06.061Z,8.63
2018-11-03T07:22:34.539Z,16.37
2018-11-03T07:25:03.168Z,8.63
2018-11-03T07:27:31.973Z,10.10
2018-11-03T07:30:00.491Z,12.90
2018-11-03T07:32:29.674Z,16.00
2018-11-03T07:34:58.165Z,12.00
2018-11-03T07:37:27.325Z,12.47
2018-11-03T07:39:56.698Z,11.83
2018-11-03T07:42:25.170Z,15.47
2018-11-03T07:44:53.544Z,16.43
2018-11-03T07:47:22.705Z,16.63
2018-11-03T07:49:51.273Z,16.90
2018-11-03T07:52:19.662Z,15.53
2018-11-03T07:54:49.198Z,17.40
2018-11-03T07:57:17.555Z,18.43
2018-11-03T07:59:46.026Z,15.10
2018-11-03T08:02:14.584Z,11.47
2018-11-03T08:04:43.242Z,18.07
2018-11-03T08:07:11.716Z,14.63
2018-11-03T08:09:41.417Z,16.87
2018-11-03T08:12:10.176Z,15.20
2018-11-03T08:14:38.685Z,12.83
2018-11-03T08:17:07.536Z,17.33
2018-11-03T08:19:36.440Z,15.63
2018-11-03T08:22:04.936Z,14.77
2018-11-03T08:24:33.628Z,16.43
2018-11-03T08:27:02.203Z,10.57
2018-11-03T08:29:30.658Z,9.80
2018-11-03T08:31:59.530Z,14.70
2018-11-03T08:34:28.094Z,15.67
2018-11-03T08:36:56.521Z,15.70
2018-11-03T08:39:26.182Z,14.37
2018-11-03T08:41:54.597Z,16.63
2018-11-03T08:44:23.036Z,15.57
2018-11-03T08:46:51.700Z,16.47
2018-11-03T08:49:20.202Z,12.27
2018-11-03T08:51:49.182Z,14.70
2018-11-03T08:54:17.592Z,11.03
2018-11-03T08:56:46.362Z,13.83
2018-11-03T08:59:14.877Z,17.30
2018-11-03T09:01:43.289Z,15.53
2018-11-03T09:04:11.792Z,14.73
2018-11-03T09:06:40.285Z,15.43
2018-11-03T09:09:09.430Z,14.20
2018-11-03T09:11:37.957Z,14.87
2018-11-03T09:14:06.401Z,12.30
2018-11-03T09:16:34.887Z,19.30
2018-11-03T09:19:04.097Z,16.27
2018-11-03T09:21:33.418Z,14.17
2018-11-03T09:24:01.919Z,14.83
2018-11-03T09:26:31.039Z,13.57
2018-11-03T09:28:59.810Z,11.40
2018-11-03T09:31:28.297Z,13.83
2018-11-03T09:33:56.801Z,13.47
2018-11-03T09:36:25.733Z,14.40
2018-11-03T09:38:54.368Z,10.23
2018-11-03T09:41:22.965Z,12.63
2018-11-03T09:43:51.420Z,14.83
2018-11-03T09:46:20.046Z,13.53
2018-11-03T09:49:19.060Z,12.93
2018-11-03T09:51:48.190Z,14.53
2018-11-03T09:54:16.631Z,11.83
2018-11-03T09:56:45.206Z,11.20
2018-11-03T09:59:13.706Z,13.93
2018-11-03T10:01:42.233Z,14.93
2018-11-03T10:04:10.738Z,14.13
2018-11-03T10:06:39.957Z,9.53
2018-11-03T10:09:08.670Z,14.53
2018-11-03T10:11:37.321Z,11.10
2018-11-03T10:14:05.854Z,11.23
2018-11-03T10:16:34.578Z,12.80
2018-11-03T10:19:03.928Z,12.67
2018-11-03T10:21:32.980Z,12.17
2018-11-03T10:24:01.708Z,11.83
2018-11-03T10:26:31.402Z,10.87
2018-11-03T10:29:00.582Z,12.17
2018-11-03T10:31:29.044Z,12.77
2018-11-03T10:33:57.972Z,13.47
2018-11-03T10:36:26.573Z,12.00
2018-11-03T10:38:55.745Z,13.00
2018-11-03T10:41:24.340Z,12.50
2018-11-03T10:43:52.910Z,12.07
2018-11-03T10:46:21.543Z,12.83
2018-11-03T10:48:50.527Z,12.73
2018-11-03T10:51:19.692Z,11.37
2018-11-03T10:53:48.334Z,12.87
2018-11-03T10:56:23.114Z,11.20
2018-11-03T10:58:51.631Z,12.53
2018-11-03T11:01:25.423Z,12.43
2018-11-03T11:03:59.235Z,12.93
2018-11-03T11:06:32.996Z,11.13
2018-11-03T11:09:06.636Z,12.83
2018-11-03T11:11:40.454Z,10.60
2018-11-03T11:14:09.201Z,10.67
2018-11-03T11:16:37.873Z,11.33
2018-11-03T11:19:06.583Z,13.53
2018-11-03T11:21:35.725Z,11.97
2018-11-03T11:24:04.524Z,9.87
2018-11-03T11:26:33.230Z,9.17
2018-11-03T11:29:28.113Z,9.20
2018-11-03T11:31:58.910Z,14.17
2018-11-03T11:34:28.304Z,16.07
2018-11-03T11:36:57.285Z,12.77
2018-11-03T11:39:27.696Z,10.57
2018-11-03T11:41:56.604Z,9.80
2018-11-03T11:44:25.266Z,13.13
2018-11-03T11:46:54.003Z,11.13
2018-11-03T11:49:22.540Z,10.53
2018-11-03T11:51:51.153Z,10.70
2018-11-03T11:54:19.964Z,12.00
2018-11-03T11:56:48.581Z,12.90
2018-11-03T11:59:17.280Z,14.63
2018-11-03T12:01:45.769Z,11.30
2018-11-03T12:04:15.198Z,11.50
2018-11-03T12:06:43.926Z,9.77
2018-11-03T12:09:12.685Z,11.20
2018-11-03T12:11:41.731Z,12.83
2018-11-03T12:14:10.212Z,11.33
2018-11-03T12:16:39.462Z,11.00
2018-11-03T12:19:07.942Z,13.83
2018-11-03T12:21:36.610Z,10.80
2018-11-03T12:24:05.673Z,12.13
2018-11-03T12:26:34.187Z,10.87
2018-11-03T12:29:03.208Z,10.47
2018-11-03T12:31:31.751Z,11.37
2018-11-03T12:34:00.418Z,12.00
2018-11-03T12:36:29.032Z,9.03
2018-11-03T12:38:57.593Z,12.43
2018-11-03T12:41:26.629Z,11.83
2018-11-03T12:43:55.231Z,12.20
2018-11-03T12:46:24.061Z,11.07
2018-11-03T12:48:52.543Z,13.53
2018-11-03T12:51:21.234Z,12.53
2018-11-03T12:53:49.694Z,12.80
2018-11-03T12:56:18.102Z,11.50
2018-11-03T12:58:47.074Z,11.83
2018-11-03T13:01:15.549Z,11.80
2018-11-03T13:03:44.183Z,11.83
2018-11-03T13:06:12.916Z,11.33
2018-11-03T13:08:42.023Z,11.40
2018-11-03T13:11:10.613Z,10.57
2018-11-03T13:13:39.081Z,12.77
2018-11-03T13:16:07.622Z,11.73
2018-11-03T13:18:36.141Z,11.37
2018-11-03T13:21:04.781Z,11.77
2018-11-03T13:23:33.342Z,12.17
2018-11-03T13:26:02.377Z,10.80
2018-11-03T13:28:30.885Z,12.33
2018-11-03T13:30:59.418Z,12.33
2018-11-03T13:33:28.377Z,11.80
2018-11-03T13:35:56.952Z,17.47
2018-11-03T13:38:25.438Z,12.00
2018-11-03T13:40:54.190Z,10.93
2018-11-03T13:43:23.457Z,11.60
2018-11-03T13:45:51.915Z,10.57
2018-11-03T13:48:20.446Z,10.93
2018-11-03T13:50:48.959Z,9.70
2018-11-03T13:53:17.422Z,17.93
2018-11-03T13:55:45.859Z,11.60
2018-11-03T13:58:14.630Z,11.83
2018-11-03T14:00:43.452Z,13.97
2018-11-03T14:03:12.090Z,12.87
2018-11-03T14:05:40.680Z,12.17
2018-11-03T14:08:10.013Z,12.23
2018-11-03T14:10:40.105Z,13.20
2018-11-03T14:13:08.678Z,13.07
2018-11-03T14:15:37.299Z,14.97
2018-11-03T14:18:06.329Z,14.57
2018-11-03T14:20:34.857Z,16.63
2018-11-03T14:23:03.371Z,17.63
2018-11-03T14:25:31.862Z,11.67
2018-11-03T14:28:01.092Z,11.60
2018-11-03T14:30:29.615Z,12.03
2018-11-03T14:32:58.957Z,10.87
2018-11-03T14:35:27.447Z,11.40
2018-11-03T14:37:56.499Z,8.90
2018-11-03T14:40:25.763Z,12.40
2018-11-03T14:42:54.550Z,11.17
2018-11-03T14:45:23.194Z,11.97
2018-11-03T14:47:51.633Z,13.27
2018-11-03T14:50:20.641Z,13.10
2018-11-03T14:52:49.165Z,11.13
2018-11-03T14:55:17.719Z,11.90
2018-11-03T14:57:46.143Z,11.70
2018-11-03T15:00:15.898Z,13.40
2018-11-03T15:02:44.439Z,10.30
2018-11-03T15:05:13.337Z,12.20
2018-11-03T15:07:41.810Z,12.60
2018-11-03T15:10:11.106Z,11.03
2018-11-03T15:12:40.650Z,12.23
2018-11-03T15:15:16.357Z,13.53
2018-11-03T15:17:45.321Z,13.97
2018-11-03T15:20:14.046Z,12.40
2018-11-03T15:22:43.658Z,15.07
2018-11-03T15:25:12.721Z,11.97
2018-11-03T15:27:41.645Z,12.43
2018-11-03T15:30:11.463Z,12.63
2018-11-03T15:32:40.360Z,11.07
2018-11-03T15:35:09.478Z,12.90
2018-11-03T15:37:38.828Z,11.83
2018-11-03T15:40:09.142Z,10.50
2018-11-03T15:42:37.671Z,14.60
2018-11-03T15:45:08.132Z,12.90
2018-11-03T15:47:36.583Z,15.47
2018-11-03T15:50:05.765Z,12.80
2018-11-03T15:52:34.231Z,13.37
2018-11-03T15:55:03.150Z,13.90
2018-11-03T15:57:32.201Z,13.40
2018-11-03T16:00:00.791Z,14.60
2018-11-03T16:02:29.945Z,13.67
2018-11-03T16:04:59.254Z,13.90
2018-11-03T16:07:27.766Z,14.53
2018-11-03T16:09:56.286Z,14.97
2018-11-03T16:12:25.550Z,15.83
2018-11-03T16:14:54.131Z,14.53
2018-11-03T16:17:22.670Z,14.40
2018-11-03T16:19:51.136Z,18.33
2018-11-03T16:22:20.515Z,15.07
2018-11-03T16:24:49.001Z,15.17
2018-11-03T16:27:17.555Z,17.00
2018-11-03T16:29:46.142Z,15.67
2018-11-03T16:32:14.721Z,15.43
2018-11-03T16:34:43.279Z,15.50
2018-11-03T16:37:11.731Z,15.40
2018-11-03T16:39:40.200Z,15.20
2018-11-03T16:42:08.737Z,15.23
2018-11-03T16:44:37.237Z,16.47
2018-11-03T16:47:06.237Z,16.23
2018-11-03T16:49:35.496Z,15.77
2018-11-03T16:52:04.198Z,16.73
2018-11-03T16:54:32.880Z,15.87
2018-11-03T16:57:01.445Z,16.47
2018-11-03T16:59:29.998Z,16.63
2018-11-03T17:01:58.578Z,16.30
2018-11-03T17:04:30.778Z,16.53
2018-11-03T17:07:00.162Z,16.00
2018-11-03T17:09:28.748Z,16.10
2018-11-03T17:11:57.458Z,15.70
2018-11-03T17:14:26.014Z,16.53
2018-11-03T17:16:54.645Z,16.73
2018-11-03T17:19:23.146Z,17.50
2018-11-03T17:21:51.597Z,17.57
2018-11-03T17:24:20.238Z,18.37
2018-11-03T17:26:49.317Z,17.70
2018-11-03T17:29:17.857Z,19.00
2018-11-03T17:31:46.358Z,15.80
2018-11-03T17:34:15.683Z,17.27
2018-11-03T17:36:44.768Z,18.20
2018-11-03T17:39:13.280Z,16.90
2018-11-03T17:41:42.466Z,17.23
2018-11-03T17:44:11.000Z,17.80
2018-11-03T17:46:39.627Z,16.67
2018-11-03T17:49:08.107Z,17.07
2018-11-03T17:51:37.431Z,17.93
2018-11-03T17:54:06.087Z,17.83
2018-11-03T17:56:34.642Z,18.77
2018-11-03T17:59:03.171Z,18.23
2018-11-03T18:01:31.899Z,16.07
2018-11-03T18:04:00.279Z,18.73
2018-11-03T18:06:28.810Z,18.23
2018-11-03T18:08:57.255Z,19.60
2018-11-03T18:11:25.875Z,19.10
2018-11-03T18:13:55.605Z,19.50
2018-11-03T18:16:24.626Z,19.17
2018-11-03T18:18:53.762Z,18.67
2018-11-03T18:21:22.231Z,19.33
2018-11-03T18:23:51.536Z,19.40
2018-11-03T18:26:20.173Z,18.03
2018-11-03T18:28:48.783Z,18.97
2018-11-03T18:31:17.209Z,18.73
2018-11-03T18:33:45.725Z,17.47
2018-11-03T18:36:14.278Z,18.77
2018-11-03T18:38:42.863Z,19.53
2018-11-03T18:41:11.329Z,18.60
2018-11-03T18:43:39.946Z,18.77
2018-11-03T18:46:08.427Z,17.67
2018-11-03T18:48:37.106Z,17.73
2018-11-03T18:51:05.779Z,19.33
2018-11-03T18:53:35.047Z,18.83
2018-11-03T18:56:03.819Z,19.10
2018-11-03T18:58:32.326Z,18.50
2018-11-03T19:01:00.789Z,18.43
2018-11-03T19:03:29.309Z,17.63
2018-11-03T19:05:57.782Z,20.23
2018-11-03T19:08:28.041Z,17.27
2018-11-03T19:10:56.668Z,18.47
2018-11-03T19:13:25.543Z,20.70
2018-11-03T19:15:55.071Z,18.00
2018-11-03T19:18:24.624Z,18.73
2018-11-03T19:20:53.094Z,19.37
2018-11-03T19:23:21.748Z,18.03
2018-11-03T19:25:50.252Z,15.03
2018-11-03T19:28:18.872Z,17.10
2018-11-03T19:30:47.444Z,16.77
2018-11-03T19:33:16.456Z,13.00
2018-11-03T19:35:45.598Z,9.03
2018-11-03T19:38:14.261Z,7.57
2018-11-03T19:40:43.431Z,8.60
2018-11-03T19:43:11.956Z,7.33
2018-11-03T19:45:40.589Z,8.37
2018-11-03T19:48:10.027Z,7.53
2018-11-03T19:50:38.661Z,10.83
2018-11-03T19:53:07.271Z,18.93
2018-11-03T19:55:35.950Z,19.87
2018-11-03T19:58:05.022Z,22.73
2018-11-03T20:00:33.559Z,19.50
2018-11-03T20:03:02.192Z,17.00
2018-11-03T20:05:30.721Z,13.80
2018-11-03T20:07:59.353Z,10.90
2018-11-03T20:10:27.830Z,13.23
2018-11-03T20:12:56.320Z,11.87
2018-11-03T20:15:24.910Z,18.50
2018-11-03T20:17:53.927Z,9.63
2018-11-03T20:20:22.369Z,15.00
2018-11-03T20:22:50.943Z,13.07
2018-11-03T20:25:19.443Z,10.20
2018-11-03T20:27:48.634Z,8.93
2018-11-03T20:30:17.493Z,16.23
2018-11-03T20:32:46.569Z,11.73
2018-11-03T20:35:15.028Z,21.93
2018-11-03T20:37:43.672Z,18.73
2018-11-03T20:40:13.911Z,18.83
2018-11-03T20:42:43.232Z,20.77
2018-11-03T20:45:11.771Z,12.83
2018-11-03T20:47:40.452Z,19.23
2018-11-03T20:50:10.975Z,18.47
2018-11-03T20:52:39.754Z,12.90
2018-11-03T20:55:09.386Z,17.97
2018-11-03T20:57:38.210Z,19.70
2018-11-03T21:00:09.205Z,19.00
2018-11-03T21:02:37.706Z,18.60
2018-11-03T21:05:07.161Z,19.87
2018-11-03T21:07:36.431Z,20.57
2018-11-03T21:10:05.656Z,20.40
2018-11-03T21:12:34.288Z,20.73
2018-11-03T21:15:03.286Z,18.27
2018-11-03T21:17:31.803Z,20.97
2018-11-03T21:20:00.286Z,21.43
2018-11-03T21:22:29.034Z,18.50
2018-11-03T21:24:58.144Z,20.87
2018-11-03T21:27:26.999Z,20.50
2018-11-03T21:29:55.651Z,18.57
2018-11-03T21:32:25.079Z,18.90
2018-11-03T21:34:53.627Z,17.23
2018-11-03T21:37:22.293Z,14.20
2018-11-03T21:39:50.774Z,14.90
2018-11-03T21:42:19.332Z,20.33
2018-11-03T21:44:47.900Z,22.07
2018-11-03T21:47:16.508Z,15.97
2018-11-03T21:49:45.043Z,20.17
2018-11-03T21:52:13.554Z,19.33
2018-11-03T21:54:42.832Z,17.93
2018-11-03T21:57:11.378Z,17.73
2018-11-03T21:59:39.896Z,15.70
2018-11-03T22:02:08.508Z,18.17
2018-11-03T22:04:37.106Z,19.43
2018-11-03T22:07:05.696Z,18.17
2018-11-03T22:09:34.229Z,18.97
2018-11-03T22:12:02.748Z,18.70
2018-11-03T22:14:31.774Z,18.10
2018-11-03T22:17:00.302Z,19.90
2018-11-03T22:19:28.944Z,17.63
2018-11-03T22:21:57.541Z,19.73
2018-11-03T22:24:26.024Z,19.17
2018-11-03T22:26:54.589Z,18.97
2018-11-03T22:29:23.214Z,19.20
2018-11-03T22:31:51.715Z,19.87
2018-11-03T22:34:20.327Z,21.33
2018-11-03T22:36:48.905Z,12.43
2018-11-03T22:39:17.481Z,19.67
2018-11-03T22:41:46.014Z,22.60
2018-11-03T22:44:15.222Z,22.47
2018-11-03T22:46:43.757Z,19.73
2018-11-03T22:49:12.197Z,20.63
2018-11-03T22:51:41.569Z,19.50
2018-11-03T22:54:10.034Z,22.10
2018-11-03T22:56:38.686Z,20.07
2018-11-03T22:59:07.306Z,20.73
2018-11-03T23:01:36.357Z,19.20
2018-11-03T23:04:04.983Z,17.90
2018-11-03T23:06:33.698Z,20.27
2018-11-03T23:09:02.319Z,20.67
2018-11-03T23:11:30.880Z,20.57
2018-11-03T23:13:59.447Z,12.13
2018-11-03T23:16:27.922Z,10.67
2018-11-03T23:18:56.432Z,8.77
2018-11-03T23:21:25.372Z,14.43
2018-11-03T23:23:54.531Z,19.90
2018-11-03T23:26:23.801Z,22.43
2018-11-03T23:28:52.712Z,20.50
2018-11-03T23:31:21.310Z,20.70
2018-11-03T23:33:49.803Z,21.73
2018-11-03T23:36:18.451Z,18.73
2018-11-03T23:38:46.942Z,20.07
2018-11-03T23:41:16.007Z,19.07
2018-11-03T23:43:44.539Z,16.13
2018-11-03T23:46:13.714Z,18.90
2018-11-03T23:48:42.268Z,19.13
2018-11-03T23:51:11.329Z,22.00
2018-11-03T23:53:39.726Z,22.00
2018-11-03T23:56:08.182Z,19.27
2018-11-03T23:58:36.687Z,20.93
